Sunny Bright — H8CD — position and weather

sailwx.info

Track history (hours):
 
Tides and Currents Weather Stations Pressure Air Temp Water Temp Dewpoint Dewpoint Depression Visibility Wind Speed Wind Dir Waves Ship Positions

Sunny Bright

Last reported at 2017-Sep-18 22:45 UTC. Time now 2017-Sep-21 18:05 UTC.
Position N 29°21' W 094°45'.

Length 230 m; beam 36.6 m.

Type: Tanker. MMSI: 356825000.

Date/timePositionNaut miles runAvg speedWind from/ knotsBaromVisibWave heightAir tempDewpointWater temp
2017-Sep-18 22:45N 29°21' W 094°45'310.5
2017-Sep-18 22:27N 29°22' W 094°48'510.7
2017-Sep-18 22:00N 29°26' W 094°50'510.6
2017-Sep-18 21:30N 29°31' W 094°53'510.4
2017-Sep-18 21:00N 29°35' W 094°56'510.0
2017-Sep-18 20:30N 29°40' W 094°59'3 7.0
2017-Sep-18 20:01N 29°43' W 095°01'3 6.7
2017-Sep-18 19:30N 29°45' W 095°04'3 5.1
2017-Sep-18 19:00N 29°44' W 095°07'  
2017-Sep-15 15:55N 29°44' W 095°07'1 2.8
2017-Sep-15 15:30N 29°45' W 095°06'3 5.1
2017-Sep-15 15:00N 29°44' W 095°03'3 6.6
2017-Sep-15 14:30N 29°42' W 095°00'510.5
2017-Sep-15 14:00N 29°37' W 094°58'612.4
2017-Sep-15 13:30N 29°32' W 094°54'612.6
2017-Sep-15 13:00N 29°27' W 094°50'713.1
2017-Sep-15 12:31N 29°21' W 094°47'2 0.1
2017-Sep-13 22:12N 29°21' W 094°44'0 0.0
2017-Sep-13 12:22N 29°21' W 094°44'0 0.2
2017-Sep-13 11:58N 29°21' W 094°44'  
Track history (hours):
 
Tides and Currents Weather Stations Pressure Air Temp Water Temp Dewpoint Dewpoint Depression Visibility Wind Speed Wind Dir Waves Ship Positions

Sunny Bright

Last reported at 2017-Sep-18 22:45 UTC. Time now 2017-Sep-21 18:05 UTC.
Position N 29°21' W 094°45'.

Length 230 m; beam 36.6 m.

Type: Tanker. MMSI: 356825000.

Date/timePositionNaut miles runAvg speedWind from/ knotsBaromVisibWave heightAir tempDewpointWater temp
2017-Sep-18 22:45N 29°21' W 094°45'310.5
2017-Sep-18 22:27N 29°22' W 094°48'510.7
2017-Sep-18 22:00N 29°26' W 094°50'510.6
2017-Sep-18 21:30N 29°31' W 094°53'510.4
2017-Sep-18 21:00N 29°35' W 094°56'510.0
2017-Sep-18 20:30N 29°40' W 094°59'3 7.0
2017-Sep-18 20:01N 29°43' W 095°01'3 6.7
2017-Sep-18 19:30N 29°45' W 095°04'3 5.1
2017-Sep-18 19:00N 29°44' W 095°07'  
2017-Sep-15 15:55N 29°44' W 095°07'1 2.8
2017-Sep-15 15:30N 29°45' W 095°06'3 5.1
2017-Sep-15 15:00N 29°44' W 095°03'3 6.6
2017-Sep-15 14:30N 29°42' W 095°00'510.5
2017-Sep-15 14:00N 29°37' W 094°58'612.4
2017-Sep-15 13:30N 29°32' W 094°54'612.6
2017-Sep-15 13:00N 29°27' W 094°50'713.1
2017-Sep-15 12:31N 29°21' W 094°47'2 0.1
2017-Sep-13 22:12N 29°21' W 094°44'0 0.0
2017-Sep-13 12:22N 29°21' W 094°44'0 0.2
2017-Sep-13 11:58N 29°21' W 094°44'  

Dump ship's entire track history